createdAt,value
2017-05-01T00:00:53.761Z,1012.82
2017-05-01T00:01:53.778Z,1012.81
2017-05-01T00:02:53.797Z,1012.83
2017-05-01T00:03:53.817Z,1012.78
2017-05-01T00:04:53.836Z,1012.76
2017-05-01T00:05:53.854Z,1012.78
2017-05-01T00:06:53.874Z,1012.81
2017-05-01T00:07:53.892Z,1012.79
2017-05-01T00:08:53.910Z,1012.77
2017-05-01T00:09:53.930Z,1012.76
2017-05-01T00:11:53.967Z,1012.83
2017-05-01T00:12:53.986Z,1012.74
2017-05-01T00:13:54.008Z,1012.83
2017-05-01T00:14:54.024Z,1012.76
2017-05-01T00:15:54.042Z,1012.72
2017-05-01T00:16:54.061Z,1012.68
2017-05-01T00:17:54.081Z,1012.64
2017-05-01T00:18:54.100Z,1012.7
2017-05-01T00:19:54.118Z,1012.68
2017-05-01T00:20:54.137Z,1012.63
2017-05-01T00:21:54.156Z,1012.63
2017-05-01T00:22:54.175Z,1012.58
2017-05-01T00:23:54.193Z,1012.55
2017-05-01T00:24:54.212Z,1012.57
2017-05-01T00:25:54.231Z,1012.61
2017-05-01T00:27:54.268Z,1012.58
2017-05-01T00:28:54.288Z,1012.56
2017-05-01T00:29:54.306Z,1012.58
2017-05-01T00:30:54.327Z,1012.39
2017-05-01T00:31:54.342Z,1012.56
2017-05-01T00:32:54.362Z,1012.49
2017-05-01T00:33:54.383Z,1012.52
2017-05-01T00:34:54.399Z,1012.56
2017-05-01T00:35:54.418Z,1012.49
2017-05-01T00:36:54.436Z,1012.51
2017-05-01T00:37:54.455Z,1012.51
2017-05-01T00:38:54.473Z,1012.53
2017-05-01T00:39:54.492Z,1012.48
2017-05-01T00:40:54.513Z,1012.47
2017-05-01T00:41:54.529Z,1012.49
2017-05-01T00:43:54.567Z,1012.47
2017-05-01T00:44:54.586Z,1012.45
2017-05-01T00:45:54.605Z,1012.45
2017-05-01T00:46:54.623Z,1012.43
2017-05-01T00:47:54.642Z,1012.42
2017-05-01T00:48:54.660Z,1012.43
2017-05-01T00:49:54.678Z,1012.41
2017-05-01T00:50:54.697Z,1012.41
2017-05-01T00:51:54.716Z,1012.39
2017-05-01T00:52:54.734Z,1012.38
2017-05-01T00:53:54.752Z,1012.4
2017-05-01T00:54:54.772Z,1012.39
2017-05-01T00:55:54.792Z,1012.35
2017-05-01T00:56:54.809Z,1012.36
2017-05-01T00:58:54.847Z,1012.29
2017-05-01T00:59:54.865Z,1012.39
2017-05-01T01:00:54.883Z,1012.31
2017-05-01T01:01:54.902Z,1012.38
2017-05-01T01:02:54.922Z,1012.32
2017-05-01T01:03:54.940Z,1012.34
2017-05-01T01:04:54.958Z,1012.35
2017-05-01T01:05:54.976Z,1012.35
2017-05-01T01:06:54.994Z,1012.31
2017-05-01T01:07:55.013Z,1012.37
2017-05-01T01:08:55.032Z,1012.39
2017-05-01T01:09:55.051Z,1012.38
2017-05-01T01:10:55.068Z,1012.32
2017-05-01T01:11:55.087Z,1012.32
2017-05-01T01:12:55.106Z,1012.37
2017-05-01T01:13:55.125Z,1012.36
2017-05-01T01:14:55.143Z,1012.37
2017-05-01T01:15:55.161Z,1012.29
2017-05-01T01:16:55.180Z,1012.33
2017-05-01T01:17:55.198Z,1012.3
2017-05-01T01:18:55.217Z,1012.36
2017-05-01T01:19:55.236Z,1012.28
2017-05-01T01:20:55.254Z,1012.29
2017-05-01T01:21:55.273Z,1012.26
2017-05-01T01:22:55.291Z,1012.26
2017-05-01T01:23:55.309Z,1012.28
2017-05-01T01:24:55.328Z,1012.23
2017-05-01T01:25:55.346Z,1012.24
2017-05-01T01:26:55.364Z,1012.21
2017-05-01T01:27:55.383Z,1012.21
2017-05-01T01:28:55.401Z,1012.23
2017-05-01T01:30:55.438Z,1012.18
2017-05-01T01:31:55.457Z,1012.21
2017-05-01T01:32:55.474Z,1012.16
2017-05-01T01:33:55.493Z,1012.19
2017-05-01T01:34:55.511Z,1012.22
2017-05-01T01:35:55.531Z,1012.18
2017-05-01T01:36:55.548Z,1012.15
2017-05-01T01:37:55.566Z,1012.15
2017-05-01T01:38:55.585Z,1012.11
2017-05-01T01:39:55.603Z,1012.12
2017-05-01T01:40:55.621Z,1012.14
2017-05-01T01:41:55.644Z,1012.12
2017-05-01T01:42:55.658Z,1012.06
2017-05-01T01:43:55.678Z,1012.11
2017-05-01T01:44:55.695Z,1012.13
2017-05-01T01:46:55.732Z,1012.16
2017-05-01T01:47:55.750Z,1012.13
2017-05-01T01:48:55.769Z,1012.11
2017-05-01T01:49:55.788Z,1012.11
2017-05-01T01:50:55.805Z,1012.09
2017-05-01T01:51:55.823Z,1012.08
2017-05-01T01:52:55.842Z,1012.13
2017-05-01T01:53:55.861Z,1012.14
2017-05-01T01:54:55.878Z,1012.16
2017-05-01T01:55:55.897Z,1012.09
2017-05-01T01:56:55.915Z,1012.06
2017-05-01T01:57:55.934Z,1012.07
2017-05-01T01:58:55.955Z,1012.04
2017-05-01T01:59:55.970Z,1012.03
2017-05-01T02:00:55.988Z,1012.04
2017-05-01T02:02:56.025Z,1011.98
2017-05-01T02:03:56.043Z,1011.97
2017-05-01T02:04:56.062Z,1011.99
2017-05-01T02:05:56.080Z,1011.96
2017-05-01T02:06:56.098Z,1011.95
2017-05-01T02:07:56.117Z,1012.03
2017-05-01T02:08:56.135Z,1011.91
2017-05-01T02:09:56.153Z,1011.97
2017-05-01T02:10:56.171Z,1011.94
2017-05-01T02:11:56.189Z,1011.95
2017-05-01T02:12:56.207Z,1011.96
2017-05-01T02:13:56.226Z,1011.96
2017-05-01T02:14:56.244Z,1011.94
2017-05-01T02:15:56.262Z,1011.86
2017-05-01T02:16:56.280Z,1011.94
2017-05-01T02:18:56.317Z,1011.98
2017-05-01T02:19:56.336Z,1011.82
2017-05-01T02:20:56.353Z,1011.89
2017-05-01T02:21:56.371Z,1011.9
2017-05-01T02:22:56.390Z,1011.9
2017-05-01T02:23:56.409Z,1011.89
2017-05-01T02:24:56.426Z,1011.88
2017-05-01T02:25:56.444Z,1011.86
2017-05-01T02:26:56.462Z,1011.86
2017-05-01T02:27:56.480Z,1011.86
2017-05-01T02:28:56.498Z,1011.83
2017-05-01T02:29:56.517Z,1011.85
2017-05-01T02:30:56.535Z,1011.83
2017-05-01T02:31:56.553Z,1011.82
2017-05-01T02:33:56.592Z,1011.79
2017-05-01T02:34:56.609Z,1011.7
2017-05-01T02:35:56.626Z,1011.7
2017-05-01T02:36:56.645Z,1011.73
2017-05-01T02:37:56.663Z,1011.74
2017-05-01T02:38:56.680Z,1011.72
2017-05-01T02:39:56.699Z,1011.66
2017-05-01T02:40:56.718Z,1011.64
2017-05-01T02:41:56.735Z,1011.67
2017-05-01T02:42:56.754Z,1011.74
2017-05-01T02:43:56.772Z,1011.61
2017-05-01T02:44:56.792Z,1011.64
2017-05-01T02:45:56.807Z,1011.6
2017-05-01T02:46:56.825Z,1011.57
2017-05-01T02:47:56.844Z,1011.49
2017-05-01T02:48:56.862Z,1011.54
2017-05-01T02:49:56.880Z,1011.51
2017-05-01T02:50:56.898Z,1011.52
2017-05-01T02:51:56.917Z,1011.49
2017-05-01T02:52:56.934Z,1011.5
2017-05-01T02:53:56.952Z,1011.49
2017-05-01T02:54:56.970Z,1011.47
2017-05-01T02:55:56.989Z,1011.47
2017-05-01T02:56:57.006Z,1011.43
2017-05-01T02:57:57.025Z,1011.46
2017-05-01T02:58:57.043Z,1011.38
2017-05-01T02:59:57.061Z,1011.39
2017-05-01T03:00:57.078Z,1011.35
2017-05-01T03:01:57.097Z,1011.48
2017-05-01T03:02:57.115Z,1011.38
2017-05-01T03:03:57.135Z,1011.38
2017-05-01T03:05:57.168Z,1011.35
2017-05-01T03:06:57.187Z,1011.35
2017-05-01T03:07:57.204Z,1011.33
2017-05-01T03:08:57.222Z,1011.29
2017-05-01T03:09:57.241Z,1011.3
2017-05-01T03:10:57.259Z,1011.31
2017-05-01T03:11:57.282Z,1011.29
2017-05-01T03:12:57.295Z,1011.27
2017-05-01T03:13:57.315Z,1011.24
2017-05-01T03:14:57.330Z,1011.28
2017-05-01T03:15:57.379Z,1011.22
2017-05-01T03:16:57.366Z,1011.28
2017-05-01T03:17:57.385Z,1011.24
2017-05-01T03:18:57.402Z,1011.23
2017-05-01T03:19:57.420Z,1011.28
2017-05-01T03:21:57.456Z,1011.17
2017-05-01T03:22:57.474Z,1011.22
2017-05-01T03:23:57.492Z,1011.19
2017-05-01T03:24:57.510Z,1011.15
2017-05-01T03:25:57.527Z,1011.17
2017-05-01T03:26:57.545Z,1011.18
2017-05-01T03:27:57.564Z,1011.14
2017-05-01T03:28:57.582Z,1011.18
2017-05-01T03:29:57.602Z,1011.16
2017-05-01T03:30:57.617Z,1011.16
2017-05-01T03:31:57.636Z,1011.07
2017-05-01T03:32:57.654Z,1011.11
2017-05-01T03:33:57.671Z,1011.1
2017-05-01T03:34:57.689Z,1011.08
2017-05-01T03:35:57.708Z,1011.09
2017-05-01T03:37:57.744Z,1011.1
2017-05-01T03:38:57.761Z,1011.07
2017-05-01T03:39:57.779Z,1011.08
2017-05-01T03:40:57.796Z,1011.06
2017-05-01T03:41:57.815Z,1011.08
2017-05-01T03:42:57.833Z,1011.1
2017-05-01T03:43:57.851Z,1011.04
2017-05-01T03:44:57.868Z,1011.07
2017-05-01T03:45:57.886Z,1011.1
2017-05-01T03:46:57.904Z,1011.17
2017-05-01T03:47:57.921Z,1011.1
2017-05-01T03:48:57.940Z,1011.1
2017-05-01T03:49:57.958Z,1011.15
2017-05-01T03:50:57.976Z,1011.15
2017-05-01T03:51:57.993Z,1011.16
2017-05-01T03:53:58.030Z,1011.13
2017-05-01T03:54:58.048Z,1011.18
2017-05-01T03:55:58.065Z,1011.08
2017-05-01T03:56:58.083Z,1011.14
2017-05-01T03:57:58.102Z,1011.16
2017-05-01T03:58:58.119Z,1011.13
2017-05-01T03:59:58.138Z,1011.15
2017-05-01T04:00:58.155Z,1011.1
2017-05-01T04:01:58.174Z,1011.14
2017-05-01T04:02:58.191Z,1011.13
2017-05-01T04:03:58.210Z,1011.15
2017-05-01T04:04:58.227Z,1011.1
2017-05-01T04:05:58.245Z,1011.13
2017-05-01T04:06:58.264Z,1011.09
2017-05-01T04:08:58.304Z,1011.14
2017-05-01T04:09:58.318Z,1011.1
2017-05-01T04:10:58.336Z,1011.1
2017-05-01T04:11:58.354Z,1011.14
2017-05-01T04:12:58.373Z,1011.12
2017-05-01T04:13:58.390Z,1011.15
2017-05-01T04:14:58.408Z,1011.11
2017-05-01T04:15:58.426Z,1011.09
2017-05-01T04:16:58.444Z,1011.09
2017-05-01T04:17:58.462Z,1011.11
2017-05-01T04:18:58.480Z,1011.07
2017-05-01T04:19:58.499Z,1011.2
2017-05-01T04:20:58.516Z,1011.16
2017-05-01T04:21:58.534Z,1011.15
2017-05-01T04:22:58.553Z,1011.23
2017-05-01T04:23:58.572Z,1011.18
2017-05-01T04:24:58.589Z,1011.2
2017-05-01T04:25:58.607Z,1011.24
2017-05-01T04:26:58.626Z,1011.24
2017-05-01T04:27:58.644Z,1011.26
2017-05-01T04:28:58.664Z,1011.24
2017-05-01T04:29:58.680Z,1011.28
2017-05-01T04:30:58.699Z,1011.27
2017-05-01T04:31:58.717Z,1011.24
2017-05-01T04:32:58.735Z,1011.25
2017-05-01T04:33:58.754Z,1011.25
2017-05-01T04:34:58.772Z,1011.24
2017-05-01T04:35:58.790Z,1011.26
2017-05-01T04:36:59.109Z,1011.27
2017-05-01T04:37:58.828Z,1011.27
2017-05-01T04:38:58.845Z,1011.28
2017-05-01T04:40:58.882Z,1011.19
2017-05-01T04:41:58.901Z,1011.33
2017-05-01T04:42:58.919Z,1011.3
2017-05-01T04:43:58.938Z,1011.24
2017-05-01T04:44:58.957Z,1011.17
2017-05-01T04:45:58.975Z,1011.21
2017-05-01T04:46:58.993Z,1011.28
2017-05-01T04:47:59.013Z,1011.34
2017-05-01T04:48:59.032Z,1011.37
2017-05-01T04:49:59.050Z,1011.4
2017-05-01T04:50:59.070Z,1011.48
2017-05-01T04:51:59.089Z,1011.5
2017-05-01T04:52:59.108Z,1011.53
2017-05-01T04:53:59.129Z,1011.55
2017-05-01T04:54:59.149Z,1011.58
2017-05-01T04:56:59.190Z,1011.49
2017-05-01T04:57:59.211Z,1011.53
2017-05-01T04:58:59.232Z,1011.53
2017-05-01T04:59:59.254Z,1011.58
2017-05-01T05:00:59.275Z,1011.41
2017-05-01T05:01:59.298Z,1011.46
2017-05-01T05:02:59.320Z,1011.39
2017-05-01T05:03:59.343Z,1011.45
2017-05-01T05:04:59.364Z,1011.52
2017-05-01T05:05:59.387Z,1011.38
2017-05-01T05:06:59.410Z,1011.41
2017-05-01T05:07:59.433Z,1011.5
2017-05-01T05:08:59.454Z,1011.44
2017-05-01T05:09:59.477Z,1011.36
2017-05-01T05:10:59.500Z,1011.33
2017-05-01T05:12:59.545Z,1011.41
2017-05-01T05:13:59.567Z,1011.35
2017-05-01T05:14:59.590Z,1011.38
2017-05-01T05:15:59.612Z,1011.43
2017-05-01T05:16:59.635Z,1011.47
2017-05-01T05:17:59.657Z,1011.4
2017-05-01T05:18:59.681Z,1011.44
2017-05-01T05:19:59.701Z,1011.4
2017-05-01T05:20:59.724Z,1011.37
2017-05-01T05:21:59.746Z,1011.35
2017-05-01T05:22:59.767Z,1011.37
2017-05-01T05:23:59.790Z,1011.38
2017-05-01T05:24:59.812Z,1011.4
2017-05-01T05:25:59.834Z,1011.34
2017-05-01T05:26:59.855Z,1011.36
2017-05-01T05:28:59.899Z,1011.42
2017-05-01T05:29:59.921Z,1011.4
2017-05-01T05:30:59.939Z,1011.34
2017-05-01T05:31:59.962Z,1011.45
2017-05-01T05:32:59.985Z,1011.34
2017-05-01T05:34:00.005Z,1011.34
2017-05-01T05:35:00.026Z,1011.34
2017-05-01T05:36:00.047Z,1011.37
2017-05-01T05:37:00.068Z,1011.43
2017-05-01T05:38:00.089Z,1011.4
2017-05-01T05:39:00.110Z,1011.42
2017-05-01T05:40:00.130Z,1011.4
2017-05-01T05:41:00.152Z,1011.34
2017-05-01T05:42:00.172Z,1011.41
2017-05-01T05:44:00.214Z,1011.49
2017-05-01T05:45:00.234Z,1011.48
2017-05-01T05:46:00.255Z,1011.45
2017-05-01T05:47:00.276Z,1011.5
2017-05-01T05:48:00.296Z,1011.45
2017-05-01T05:49:00.316Z,1011.43
2017-05-01T05:50:00.337Z,1011.48
2017-05-01T05:51:00.357Z,1011.52
2017-05-01T05:52:00.381Z,1011.48
2017-05-01T05:53:00.398Z,1011.46
2017-05-01T05:54:00.419Z,1011.44
2017-05-01T05:55:00.439Z,1011.45
2017-05-01T05:56:00.459Z,1011.41
2017-05-01T05:57:00.480Z,1011.41
2017-05-01T05:58:00.500Z,1011.46
2017-05-01T05:59:00.521Z,1011.52
2017-05-01T06:00:00.539Z,1011.44
2017-05-01T06:01:00.561Z,1011.36
2017-05-01T06:02:00.581Z,1011.44
2017-05-01T06:03:00.600Z,1011.44
2017-05-01T06:04:00.623Z,1011.4
2017-05-01T06:05:00.641Z,1011.44
2017-05-01T06:06:00.661Z,1011.35
2017-05-01T06:07:00.681Z,1011.43
2017-05-01T06:08:00.701Z,1011.57
2017-05-01T06:09:00.722Z,1011.42
2017-05-01T06:10:00.742Z,1011.46
2017-05-01T06:11:00.762Z,1011.46
2017-05-01T06:12:00.782Z,1011.42
2017-05-01T06:13:00.803Z,1011.38
2017-05-01T06:14:00.826Z,1011.36
2017-05-01T06:16:00.863Z,1011.47
2017-05-01T06:17:00.887Z,1011.37
2017-05-01T06:18:00.903Z,1011.4
2017-05-01T06:19:00.924Z,1011.39
2017-05-01T06:20:00.945Z,1011.46
2017-05-01T06:21:00.966Z,1011.44
2017-05-01T06:22:00.985Z,1011.42
2017-05-01T06:23:01.006Z,1011.41
2017-05-01T06:24:01.026Z,1011.48
2017-05-01T06:25:01.046Z,1011.49
2017-05-01T06:26:01.068Z,1011.43
2017-05-01T06:27:01.088Z,1011.45
2017-05-01T06:28:01.109Z,1011.45
2017-05-01T06:29:01.129Z,1011.91
2017-05-01T06:30:01.150Z,1011.53
2017-05-01T06:32:01.192Z,1011.51
2017-05-01T06:33:01.212Z,1011.5
2017-05-01T06:34:01.233Z,1011.47
2017-05-01T06:35:01.254Z,1011.52
2017-05-01T06:36:01.274Z,1011.52
2017-05-01T06:37:01.295Z,1011.56
2017-05-01T06:38:01.317Z,1011.54
2017-05-01T06:39:01.338Z,1011.54
2017-05-01T06:40:01.358Z,1011.53
2017-05-01T06:41:01.380Z,1011.68
2017-05-01T06:42:01.400Z,1011.59
2017-05-01T06:43:01.422Z,1011.55
2017-05-01T06:44:01.442Z,1011.58
2017-05-01T06:45:01.464Z,1011.59
2017-05-01T06:46:01.486Z,1011.55
2017-05-01T06:48:01.528Z,1011.54
2017-05-01T06:49:01.549Z,1011.52
2017-05-01T06:50:01.571Z,1011.54
2017-05-01T06:51:01.591Z,1011.5
2017-05-01T06:52:01.613Z,1011.49
2017-05-01T06:53:01.635Z,1011.56
2017-05-01T06:54:01.656Z,1011.52
2017-05-01T06:55:01.676Z,1011.53
2017-05-01T06:56:01.706Z,1011.58
2017-05-01T06:57:01.720Z,1011.58
2017-05-01T06:58:01.742Z,1011.53
2017-05-01T06:59:01.763Z,1011.69
2017-05-01T07:00:01.785Z,1011.71
2017-05-01T07:01:01.807Z,1011.54
2017-05-01T07:02:01.828Z,1011.62
2017-05-01T07:04:01.872Z,1011.74
2017-05-01T07:05:01.894Z,1011.78
2017-05-01T07:06:01.916Z,1011.97
2017-05-01T07:07:01.938Z,1011.68
2017-05-01T07:08:01.961Z,1011.58
2017-05-01T07:09:01.983Z,1011.58
2017-05-01T07:10:02.006Z,1011.51
2017-05-01T07:11:02.029Z,1011.53
2017-05-01T07:12:02.052Z,1011.5
2017-05-01T07:13:02.075Z,1011.83
2017-05-01T07:14:02.097Z,1011.55
2017-05-01T07:15:02.121Z,1011.59
2017-05-01T07:16:02.144Z,1011.7
2017-05-01T07:17:02.169Z,1011.56
2017-05-01T07:19:02.214Z,1011.58
2017-05-01T07:20:02.236Z,1011.51
2017-05-01T07:21:02.259Z,1011.49
2017-05-01T07:22:02.283Z,1011.61
2017-05-01T07:23:02.306Z,1011.47
2017-05-01T07:24:02.329Z,1011.55
2017-05-01T07:25:02.352Z,1011.49
2017-05-01T07:26:02.376Z,1011.45
2017-05-01T07:27:02.398Z,1011.51
2017-05-01T07:28:02.422Z,1011.79
2017-05-01T07:29:02.445Z,1011.48
2017-05-01T07:30:02.470Z,1011.61
2017-05-01T07:31:02.492Z,1011.49
2017-05-01T07:32:02.515Z,1011.52
2017-05-01T07:33:02.840Z,1011.5
2017-05-01T07:34:02.563Z,1011.58
2017-05-01T07:35:02.586Z,1011.38
2017-05-01T07:36:02.611Z,1011.29
2017-05-01T07:37:02.634Z,1011.41
2017-05-01T07:38:02.658Z,1011.37
2017-05-01T07:39:02.681Z,1011.41
2017-05-01T07:40:02.704Z,1011.39
2017-05-01T07:41:02.728Z,1011.44
2017-05-01T07:42:02.752Z,1011.41
2017-05-01T07:43:02.776Z,1011.33
2017-05-01T07:44:02.800Z,1011.32
2017-05-01T07:45:02.823Z,1011.32
2017-05-01T07:46:02.845Z,1011.28
2017-05-01T07:47:02.871Z,1011.3
2017-05-01T07:48:02.894Z,1011.27
2017-05-01T07:49:02.917Z,1011.33
2017-05-01T07:51:02.965Z,1011.38
2017-05-01T07:52:02.989Z,1011.45
2017-05-01T07:53:03.011Z,1011.65
2017-05-01T07:54:03.035Z,1011.81
2017-05-01T07:55:03.060Z,1011.71
2017-05-01T07:56:03.084Z,1011.77
2017-05-01T07:57:03.108Z,1011.47
2017-05-01T07:58:03.133Z,1011.7
2017-05-01T07:59:03.158Z,1011.7
2017-05-01T08:00:03.181Z,1011.39
2017-05-01T08:01:03.208Z,1011.46
2017-05-01T08:02:03.233Z,1011.65
2017-05-01T08:03:03.259Z,1011.51
2017-05-01T08:04:03.283Z,1011.4
2017-05-01T08:05:03.309Z,1011.56
2017-05-01T08:07:03.362Z,1011.58
2017-05-01T08:08:03.394Z,1011.66
2017-05-01T08:09:03.414Z,1011.44
2017-05-01T08:10:03.440Z,1011.55
2017-05-01T08:11:03.466Z,1011.62
2017-05-01T08:12:03.493Z,1011.57
2017-05-01T08:13:03.520Z,1011.55
2017-05-01T08:14:03.547Z,1011.61
2017-05-01T08:15:03.573Z,1011.57
2017-05-01T08:16:03.601Z,1011.69
2017-05-01T08:17:03.629Z,1011.75
2017-05-01T08:18:03.656Z,1011.43
2017-05-01T08:19:03.683Z,1011.39
2017-05-01T08:20:03.718Z,1011.95
2017-05-01T08:21:03.739Z,1011.77
2017-05-01T08:23:03.794Z,1011.69
2017-05-01T08:24:03.822Z,1011.78
2017-05-01T08:25:03.850Z,1011.4
2017-05-01T08:26:03.877Z,1011.69
2017-05-01T08:27:03.905Z,1011.8
2017-05-01T08:28:03.934Z,1011.72
2017-05-01T08:29:03.963Z,1011.32
2017-05-01T08:30:03.989Z,1011.41
2017-05-01T08:31:04.018Z,1011.45
2017-05-01T08:32:04.045Z,1011.81
2017-05-01T08:33:04.074Z,1011.4
2017-05-01T08:34:04.102Z,1011.49
2017-05-01T08:35:04.129Z,1011.57
2017-05-01T08:36:04.158Z,1011.66
2017-05-01T08:37:04.185Z,1011.56
2017-05-01T08:39:04.242Z,1011.49
2017-05-01T08:40:04.270Z,1011.55
2017-05-01T08:41:04.298Z,1011.49
2017-05-01T08:42:04.325Z,1011.57
2017-05-01T08:43:04.354Z,1011.36
2017-05-01T08:44:04.382Z,1011.4
2017-05-01T08:45:04.410Z,1011.43
2017-05-01T08:46:04.439Z,1011.34
2017-05-01T08:47:04.467Z,1011.42
2017-05-01T08:48:04.495Z,1011.39
2017-05-01T08:49:04.524Z,1011.4
2017-05-01T08:50:04.553Z,1011.38
2017-05-01T08:51:04.581Z,1011.34
2017-05-01T08:52:04.612Z,1011.24
2017-05-01T08:54:04.670Z,1011.27
2017-05-01T08:55:04.748Z,1011.43
2017-05-01T08:56:04.727Z,1011.3
2017-05-01T08:57:04.757Z,1011.25
2017-05-01T08:58:04.786Z,1011.23
2017-05-01T08:59:04.815Z,1011.16
2017-05-01T09:00:04.843Z,1011.21
2017-05-01T09:01:04.872Z,1011.15
2017-05-01T09:02:04.902Z,1011.15
2017-05-01T09:03:04.931Z,1011.14
2017-05-01T09:04:04.960Z,1011.21
2017-05-01T09:05:04.989Z,1011.1
2017-05-01T09:06:05.319Z,1011.22
2017-05-01T09:07:05.056Z,1011.11
2017-05-01T09:08:05.085Z,1011.13
2017-05-01T09:09:05.114Z,1011.11
2017-05-01T09:10:05.133Z,1011.12
2017-05-01T09:11:05.163Z,1011.14
2017-05-01T09:12:05.191Z,1011.14
2017-05-01T09:13:05.221Z,1011.04
2017-05-01T09:14:05.250Z,1011.08
2017-05-01T09:15:05.279Z,1011.17
2017-05-01T09:16:05.307Z,1010.96
2017-05-01T09:17:05.336Z,1010.99
2017-05-01T09:18:05.364Z,1011.07
2017-05-01T09:19:05.394Z,1011.02
2017-05-01T09:20:05.423Z,1010.93
2017-05-01T09:21:05.451Z,1011.14
2017-05-01T09:22:05.481Z,1010.98
2017-05-01T09:23:05.510Z,1010.95
2017-05-01T09:24:05.538Z,1010.87
2017-05-01T09:26:05.599Z,1010.99
2017-05-01T09:27:05.625Z,1010.99
2017-05-01T09:28:05.653Z,1010.92
2017-05-01T09:29:05.682Z,1010.92
2017-05-01T09:30:05.711Z,1010.83
2017-05-01T09:31:05.740Z,1010.88
2017-05-01T09:32:05.768Z,1010.91
2017-05-01T09:33:05.797Z,1010.85
2017-05-01T09:34:05.826Z,1010.95
2017-05-01T09:35:05.854Z,1010.86
2017-05-01T09:36:05.883Z,1010.89
2017-05-01T09:37:05.912Z,1010.81
2017-05-01T09:38:05.941Z,1010.87
2017-05-01T09:39:05.968Z,1010.81
2017-05-01T09:40:05.997Z,1010.85
2017-05-01T09:42:06.055Z,1010.75
2017-05-01T09:43:06.083Z,1010.76
2017-05-01T09:44:06.112Z,1010.76
2017-05-01T09:45:06.141Z,1010.66
2017-05-01T09:46:06.173Z,1010.78
2017-05-01T09:47:06.198Z,1010.78
2017-05-01T09:48:06.226Z,1010.77
2017-05-01T09:49:06.256Z,1010.74
2017-05-01T09:50:06.283Z,1010.77
2017-05-01T09:51:06.312Z,1010.59
2017-05-01T09:52:06.340Z,1010.77
2017-05-01T09:53:06.369Z,1010.86
2017-05-01T09:54:06.397Z,1010.66
2017-05-01T09:55:06.426Z,1010.99
2017-05-01T09:56:06.456Z,1010.89
2017-05-01T09:58:06.510Z,1010.77
2017-05-01T09:59:06.539Z,1010.74
2017-05-01T10:00:06.572Z,1010.87
2017-05-01T10:01:06.595Z,1010.74
2017-05-01T10:02:06.623Z,1010.75
2017-05-01T10:03:06.652Z,1010.76
2017-05-01T10:04:06.680Z,1010.76
2017-05-01T10:05:06.708Z,1010.69
2017-05-01T10:06:06.737Z,1010.79
2017-05-01T10:07:06.765Z,1010.69
2017-05-01T10:08:06.792Z,1010.78
2017-05-01T10:09:06.821Z,1010.8
2017-05-01T10:10:06.847Z,1010.83
2017-05-01T10:11:06.878Z,1010.84
2017-05-01T10:12:06.904Z,1010.84
2017-05-01T10:14:06.961Z,1010.83
2017-05-01T10:15:06.988Z,1010.92
2017-05-01T10:16:07.015Z,1010.79
2017-05-01T10:17:07.043Z,1010.75
2017-05-01T10:18:07.072Z,1010.78
2017-05-01T10:19:07.098Z,1010.75
2017-05-01T10:20:07.125Z,1010.84
2017-05-01T10:21:07.154Z,1010.77
2017-05-01T10:22:07.182Z,1010.68
2017-05-01T10:23:07.209Z,1010.74
2017-05-01T10:24:07.238Z,1010.81
2017-05-01T10:25:07.266Z,1010.87
2017-05-01T10:26:07.293Z,1010.89
2017-05-01T10:27:07.321Z,1010.84
2017-05-01T10:29:07.377Z,1010.76
2017-05-01T10:30:07.403Z,1010.77
2017-05-01T10:31:07.431Z,1010.77
2017-05-01T10:32:07.459Z,1010.74
2017-05-01T10:33:07.487Z,1010.81
2017-05-01T10:34:07.515Z,1010.71
2017-05-01T10:35:07.542Z,1010.68
2017-05-01T10:36:07.569Z,1010.68
2017-05-01T10:37:07.596Z,1010.69
2017-05-01T10:38:07.622Z,1010.64
2017-05-01T10:39:07.651Z,1010.73
2017-05-01T10:40:07.678Z,1010.74
2017-05-01T10:41:07.704Z,1010.68
2017-05-01T10:42:07.731Z,1010.72
2017-05-01T10:43:07.758Z,1010.62
2017-05-01T10:44:07.785Z,1010.67
2017-05-01T10:45:07.812Z,1010.7
2017-05-01T10:46:07.838Z,1010.79
2017-05-01T10:47:07.865Z,1010.63
2017-05-01T10:48:07.891Z,1010.69
2017-05-01T10:49:07.919Z,1010.66
2017-05-01T10:50:07.946Z,1010.71
2017-05-01T10:51:07.973Z,1010.63
2017-05-01T10:52:07.999Z,1010.7
2017-05-01T10:53:08.325Z,1010.69
2017-05-01T10:54:08.052Z,1010.81
2017-05-01T10:55:08.079Z,1010.71
2017-05-01T10:56:08.105Z,1010.7
2017-05-01T10:57:08.131Z,1010.66
2017-05-01T10:58:08.159Z,1010.66
2017-05-01T10:59:08.184Z,1010.62
2017-05-01T11:01:08.237Z,1010.77
2017-05-01T11:02:08.300Z,1010.68
2017-05-01T11:03:08.288Z,1010.9
2017-05-01T11:04:08.315Z,1010.66
2017-05-01T11:05:08.341Z,1010.86
2017-05-01T11:06:08.366Z,1010.67
2017-05-01T11:07:08.392Z,1010.72
2017-05-01T11:08:08.418Z,1010.69
2017-05-01T11:09:08.444Z,1010.67
2017-05-01T11:10:08.469Z,1010.69
2017-05-01T11:11:08.496Z,1010.76
2017-05-01T11:12:08.525Z,1010.67
2017-05-01T11:13:08.548Z,1010.68
2017-05-01T11:14:08.574Z,1010.74
2017-05-01T11:15:08.600Z,1010.66
2017-05-01T11:17:08.653Z,1010.64
2017-05-01T11:18:08.677Z,1010.61
2017-05-01T11:19:08.703Z,1010.63
2017-05-01T11:20:08.729Z,1010.58
2017-05-01T11:21:08.754Z,1010.6
2017-05-01T11:22:08.780Z,1010.62
2017-05-01T11:23:08.851Z,1010.59
2017-05-01T11:24:08.832Z,1010.59
2017-05-01T11:25:08.857Z,1010.79
2017-05-01T11:26:08.887Z,1010.6
2017-05-01T11:27:08.909Z,1010.54
2017-05-01T11:28:08.936Z,1010.64
2017-05-01T11:29:08.960Z,1010.64
2017-05-01T11:30:08.989Z,1010.69
2017-05-01T11:31:09.013Z,1010.64
2017-05-01T11:33:09.064Z,1010.78
2017-05-01T11:34:09.089Z,1010.69
2017-05-01T11:35:09.115Z,1010.61
2017-05-01T11:36:09.141Z,1010.6
2017-05-01T11:37:09.166Z,1010.67
2017-05-01T11:38:09.193Z,1010.54
2017-05-01T11:39:09.218Z,1010.55
2017-05-01T11:40:09.243Z,1010.65
2017-05-01T11:41:09.276Z,1010.68
2017-05-01T11:42:09.295Z,1010.63
2017-05-01T11:43:09.319Z,1010.64
2017-05-01T11:44:09.346Z,1010.59
2017-05-01T11:45:09.371Z,1010.51
2017-05-01T11:46:09.397Z,1010.61
2017-05-01T11:47:09.421Z,1010.6
2017-05-01T11:49:09.473Z,1010.52
2017-05-01T11:50:09.508Z,1010.68
2017-05-01T11:51:09.523Z,1010.54
2017-05-01T11:52:09.549Z,1010.58
2017-05-01T11:53:09.575Z,1010.65
2017-05-01T11:54:09.599Z,1010.51
2017-05-01T11:55:09.625Z,1010.51
2017-05-01T11:56:09.651Z,1010.46
2017-05-01T11:57:09.676Z,1010.57
2017-05-01T11:58:09.701Z,1010.51
2017-05-01T11:59:09.726Z,1010.52
2017-05-01T12:00:09.752Z,1010.38
2017-05-01T12:01:09.777Z,1010.38
2017-05-01T12:02:09.803Z,1010.44
2017-05-01T12:04:09.854Z,1010.57
2017-05-01T12:05:09.879Z,1010.5
2017-05-01T12:06:09.904Z,1010.67
2017-05-01T12:07:09.930Z,1010.57
2017-05-01T12:08:09.955Z,1010.47
2017-05-01T12:09:09.992Z,1010.46
2017-05-01T12:10:10.006Z,1010.37
2017-05-01T12:11:10.035Z,1010.45
2017-05-01T12:12:10.056Z,1010.35
2017-05-01T12:13:10.082Z,1010.35
2017-05-01T12:14:10.107Z,1010.4
2017-05-01T12:15:10.132Z,1010.37
2017-05-01T12:16:10.156Z,1010.39
2017-05-01T12:17:10.185Z,1010.37
2017-05-01T12:18:10.208Z,1010.26
2017-05-01T12:19:10.233Z,1010.33
2017-05-01T12:20:10.258Z,1010.42
2017-05-01T12:21:10.284Z,1010.36
2017-05-01T12:22:10.309Z,1010.46
2017-05-01T12:23:10.339Z,1010.33
2017-05-01T12:24:10.360Z,1010.32
2017-05-01T12:25:10.385Z,1010.45
2017-05-01T12:26:10.410Z,1010.6
2017-05-01T12:27:10.435Z,1010.38
2017-05-01T12:28:10.460Z,1010.37
2017-05-01T12:29:10.486Z,1010.38
2017-05-01T12:30:10.511Z,1010.48
2017-05-01T12:31:10.536Z,1010.49
2017-05-01T12:32:10.561Z,1010.37
2017-05-01T12:33:10.592Z,1010.3
2017-05-01T12:34:10.611Z,1010.3
2017-05-01T12:36:10.662Z,1010.46
2017-05-01T12:37:10.688Z,1010.41
2017-05-01T12:38:10.717Z,1010.4
2017-05-01T12:39:10.738Z,1010.44
2017-05-01T12:40:10.763Z,1010.48
2017-05-01T12:41:10.788Z,1010.37
2017-05-01T12:42:10.814Z,1010.4
2017-05-01T12:43:10.840Z,1010.42
2017-05-01T12:44:10.865Z,1010.39
2017-05-01T12:45:10.889Z,1010.46
2017-05-01T12:46:10.915Z,1010.37
2017-05-01T12:47:10.941Z,1010.45
2017-05-01T12:48:10.966Z,1010.39